createdAt,value
2019-01-23T00:02:08.702Z,-1.63
2019-01-23T00:04:37.104Z,-1.63
2019-01-23T00:07:05.361Z,-1.66
2019-01-23T00:09:33.633Z,-1.66
2019-01-23T00:12:01.965Z,-1.62
2019-01-23T00:14:30.246Z,-1.61
2019-01-23T00:16:58.497Z,-1.61
2019-01-23T00:19:26.777Z,-1.65
2019-01-23T00:21:55.074Z,-1.66
2019-01-23T00:24:23.392Z,-1.67
2019-01-23T00:26:51.666Z,-1.67
2019-01-23T00:29:19.990Z,-1.66
2019-01-23T00:31:48.435Z,-1.66
2019-01-23T00:34:16.737Z,-1.65
2019-01-23T00:36:45.046Z,-1.67
2019-01-23T00:39:13.365Z,-1.61
2019-01-23T00:41:41.622Z,-1.65
2019-01-23T00:44:09.954Z,-1.66
2019-01-23T00:46:38.216Z,-1.66
2019-01-23T00:49:06.493Z,-1.67
2019-01-23T00:51:34.809Z,-1.68
2019-01-23T00:54:03.273Z,-1.66
2019-01-23T00:56:31.536Z,-1.70
2019-01-23T00:58:59.783Z,-1.70
2019-01-23T01:01:28.066Z,-1.69
2019-01-23T01:03:56.373Z,-1.71
2019-01-23T01:06:24.760Z,-1.73
2019-01-23T01:08:53.079Z,-1.78
2019-01-23T01:11:21.383Z,-1.79
2019-01-23T01:13:49.704Z,-1.79
2019-01-23T01:16:17.983Z,-1.79
2019-01-23T01:18:46.246Z,-1.80
2019-01-23T01:21:14.597Z,-1.82
2019-01-23T01:23:42.855Z,-1.80
2019-01-23T01:26:11.166Z,-1.83
2019-01-23T01:28:39.472Z,-1.81
2019-01-23T01:31:07.718Z,-1.83
2019-01-23T01:33:36.066Z,-1.81
2019-01-23T01:36:04.482Z,-1.80
2019-01-23T01:38:32.796Z,-1.80
2019-01-23T01:41:01.139Z,-1.80
2019-01-23T01:43:29.965Z,-1.79
2019-01-23T01:45:58.320Z,-1.80
2019-01-23T01:48:26.619Z,-1.78
2019-01-23T01:50:54.892Z,-1.79
2019-01-23T01:53:23.211Z,-1.78
2019-01-23T01:55:51.535Z,-1.77
2019-01-23T01:58:19.841Z,-1.74
2019-01-23T02:00:48.178Z,-1.73
2019-01-23T02:03:16.434Z,-1.74
2019-01-23T02:05:44.716Z,-1.74
2019-01-23T02:08:13.061Z,-1.70
2019-01-23T02:10:41.402Z,-1.70
2019-01-23T02:13:09.734Z,-1.72
2019-01-23T02:15:38.047Z,-1.69
2019-01-23T02:18:06.332Z,-1.69
2019-01-23T02:20:34.635Z,-1.68
2019-01-23T02:23:02.917Z,-1.68
2019-01-23T02:25:31.179Z,-1.66
2019-01-23T02:27:59.566Z,-1.65
2019-01-23T02:30:27.825Z,-1.61
2019-01-23T02:32:56.104Z,-1.59
2019-01-23T02:35:24.385Z,-1.57
2019-01-23T02:37:52.658Z,-1.52
2019-01-23T02:40:21.702Z,-1.52
2019-01-23T02:42:49.990Z,-1.56
2019-01-23T02:45:18.508Z,-1.51
2019-01-23T02:47:46.758Z,-1.49
2019-01-23T02:50:15.266Z,-1.50
2019-01-23T02:52:43.543Z,-1.49
2019-01-23T02:55:12.084Z,-1.52
2019-01-23T02:57:40.337Z,-1.51
2019-01-23T03:00:14.425Z,-1.49
2019-01-23T03:02:42.718Z,-1.48
2019-01-23T03:05:13.430Z,-1.44
2019-01-23T03:07:41.731Z,-1.46
2019-01-23T03:10:12.754Z,-1.46
2019-01-23T03:12:41.077Z,-1.48
2019-01-23T03:15:11.865Z,-1.47
2019-01-23T03:17:40.213Z,-1.45
2019-01-23T03:20:10.804Z,-1.45
2019-01-23T03:22:39.321Z,-1.46
2019-01-23T03:25:09.313Z,-1.47
2019-01-23T03:27:37.576Z,-1.42
2019-01-23T03:30:08.700Z,-1.43
2019-01-23T03:32:37.096Z,-1.43
2019-01-23T03:35:08.295Z,-1.43
2019-01-23T03:37:36.628Z,-1.41
2019-01-23T03:40:13.774Z,-1.39
2019-01-23T03:42:42.098Z,-1.38
2019-01-23T03:45:12.266Z,-1.36
2019-01-23T03:47:40.546Z,-1.34
2019-01-23T03:50:14.312Z,-1.35
2019-01-23T03:52:42.607Z,-1.34
2019-01-23T03:55:12.285Z,-1.35
2019-01-23T03:57:40.598Z,-1.34
2019-01-23T04:00:14.510Z,-1.32
2019-01-23T04:02:42.951Z,-1.31
2019-01-23T04:05:11.746Z,-1.29
2019-01-23T04:07:40.004Z,-1.28
2019-01-23T04:10:17.557Z,-1.29
2019-01-23T04:12:45.940Z,-1.26
2019-01-23T04:15:16.073Z,-1.29
2019-01-23T04:17:44.370Z,-1.27
2019-01-23T04:20:17.842Z,-1.24
2019-01-23T04:22:46.157Z,-1.26
2019-01-23T04:25:14.645Z,-1.25
2019-01-23T04:27:42.936Z,-1.23
2019-01-23T04:30:17.086Z,-1.23
2019-01-23T04:32:45.368Z,-1.25
2019-01-23T04:35:13.659Z,-1.22
2019-01-23T04:37:42.850Z,-1.23
2019-01-23T04:40:12.843Z,-1.23
2019-01-23T04:42:41.070Z,-1.27
2019-01-23T04:45:11.654Z,-1.27
2019-01-23T04:47:39.920Z,-1.27
2019-01-23T04:50:10.378Z,-1.25
2019-01-23T04:52:49.193Z,-1.25
2019-01-23T04:55:17.487Z,-1.24
2019-01-23T04:57:46.522Z,-1.23
2019-01-23T05:00:16.459Z,-1.23
2019-01-23T05:02:44.720Z,-1.22
2019-01-23T05:05:13.033Z,-1.21
2019-01-23T05:07:41.329Z,-1.19
2019-01-23T05:10:09.631Z,-1.19
2019-01-23T05:12:37.937Z,-1.19
2019-01-23T05:15:07.872Z,-1.21
2019-01-23T05:17:36.147Z,-1.20
2019-01-23T05:20:10.671Z,-1.20
2019-01-23T05:22:39.384Z,-1.20
2019-01-23T05:25:07.814Z,-1.21
2019-01-23T05:27:36.511Z,-1.24
2019-01-23T05:30:08.025Z,-1.27
2019-01-23T05:32:36.337Z,-1.21
2019-01-23T05:35:04.828Z,-1.25
2019-01-23T05:37:33.131Z,-1.24
2019-01-23T05:40:01.390Z,-1.21
2019-01-23T05:42:29.780Z,-1.21
2019-01-23T05:44:58.095Z,-1.21
2019-01-23T05:47:26.345Z,-1.20
2019-01-23T05:49:54.626Z,-1.22
2019-01-23T05:52:22.955Z,-1.21
2019-01-23T05:54:51.242Z,-1.17
2019-01-23T05:57:19.522Z,-1.15
2019-01-23T05:59:47.793Z,-1.15
2019-01-23T06:02:16.095Z,-1.11
2019-01-23T06:04:44.525Z,-1.10
2019-01-23T06:07:12.784Z,-1.12
2019-01-23T06:09:41.093Z,-1.11
2019-01-23T06:12:09.375Z,-1.10
2019-01-23T06:14:39.285Z,-1.11
2019-01-23T06:17:07.608Z,-1.12
2019-01-23T06:19:35.915Z,-1.12
2019-01-23T06:22:04.430Z,-1.13
2019-01-23T06:24:32.702Z,-1.13
2019-01-23T06:27:01.028Z,-1.14
2019-01-23T06:29:29.286Z,-1.15
2019-01-23T06:31:57.590Z,-1.16
2019-01-23T06:34:25.855Z,-1.17
2019-01-23T06:36:54.177Z,-1.17
2019-01-23T06:39:22.490Z,-1.13
2019-01-23T06:41:50.759Z,-1.16
2019-01-23T06:44:19.377Z,-1.19
2019-01-23T06:46:47.667Z,-1.20
2019-01-23T06:49:15.956Z,-1.27
2019-01-23T06:51:44.221Z,-1.25
2019-01-23T06:54:12.504Z,-1.27
2019-01-23T06:56:40.833Z,-1.26
2019-01-23T06:59:09.143Z,-1.29
2019-01-23T07:01:37.427Z,-1.29
2019-01-23T07:04:05.763Z,-1.33
2019-01-23T07:06:34.057Z,-1.34
2019-01-23T07:09:02.421Z,-1.35
2019-01-23T07:11:30.669Z,-1.34
2019-01-23T07:13:58.953Z,-1.32
2019-01-23T07:16:27.262Z,-1.31
2019-01-23T07:18:55.540Z,-1.31
2019-01-23T07:21:23.823Z,-1.30
2019-01-23T07:23:52.144Z,-1.33
2019-01-23T07:26:20.403Z,-1.34
2019-01-23T07:28:49.245Z,-1.35
2019-01-23T07:31:17.777Z,-1.35
2019-01-23T07:33:46.063Z,-1.35
2019-01-23T07:36:14.381Z,-1.31
2019-01-23T07:38:42.678Z,-1.34
2019-01-23T07:41:10.999Z,-1.30
2019-01-23T07:43:39.264Z,-1.32
2019-01-23T07:46:07.550Z,-1.36
2019-01-23T07:48:35.811Z,-1.35
2019-01-23T07:51:04.132Z,-1.35
2019-01-23T07:53:32.434Z,-1.34
2019-01-23T07:56:00.715Z,-1.31
2019-01-23T07:58:28.970Z,-1.30
2019-01-23T08:00:57.262Z,-1.29
2019-01-23T08:03:25.548Z,-1.29
2019-01-23T08:05:53.808Z,-1.30
2019-01-23T08:08:22.128Z,-1.29
2019-01-23T08:10:50.511Z,-1.28
2019-01-23T08:13:18.862Z,-1.26
2019-01-23T08:15:47.145Z,-1.28
2019-01-23T08:18:15.427Z,-1.30
2019-01-23T08:20:43.748Z,-1.28
2019-01-23T08:23:12.219Z,-1.30
2019-01-23T08:25:40.487Z,-1.29
2019-01-23T08:28:08.934Z,-1.28
2019-01-23T08:30:38.911Z,-1.27
2019-01-23T08:33:07.189Z,-1.24
2019-01-23T08:35:35.480Z,-1.21
2019-01-23T08:38:03.741Z,-1.17
2019-01-23T08:40:32.048Z,-1.15
2019-01-23T08:43:00.380Z,-1.14
2019-01-23T08:45:28.683Z,-1.14
2019-01-23T08:47:56.947Z,-1.13
2019-01-23T08:50:34.069Z,-1.10
2019-01-23T08:53:02.325Z,-1.06
2019-01-23T08:55:30.664Z,-1.04
2019-01-23T08:57:59.624Z,-1.01
2019-01-23T09:00:28.031Z,-1.00
2019-01-23T09:02:56.294Z,-0.99
2019-01-23T09:05:24.562Z,-0.97
2019-01-23T09:07:52.876Z,-0.94
2019-01-23T09:10:23.751Z,-0.93
2019-01-23T09:12:52.017Z,-0.89
2019-01-23T09:15:20.306Z,-0.87
2019-01-23T09:17:48.586Z,-0.91
2019-01-23T09:20:18.843Z,-0.93
2019-01-23T09:22:47.175Z,-0.91
2019-01-23T09:25:20.854Z,-0.93
2019-01-23T09:27:49.180Z,-0.92
2019-01-23T09:30:26.870Z,-0.91
2019-01-23T09:33:01.251Z,-0.88
2019-01-23T09:35:47.990Z,-0.86
2019-01-23T09:38:34.885Z,-0.90
2019-01-23T09:41:09.584Z,-0.95
2019-01-23T09:43:53.197Z,-0.93
2019-01-23T09:46:24.789Z,-0.94
2019-01-23T09:49:08.392Z,-0.89
2019-01-23T09:52:03.812Z,-0.90
2019-01-23T09:54:32.129Z,-0.90
2019-01-23T09:57:00.383Z,-0.88
2019-01-23T09:59:28.715Z,-0.85
2019-01-23T10:01:56.973Z,-0.83
2019-01-23T10:04:25.269Z,-0.80
2019-01-23T10:06:53.558Z,-0.80
2019-01-23T10:09:21.823Z,-0.84
2019-01-23T10:11:50.114Z,-0.90
2019-01-23T10:14:18.410Z,-0.88
2019-01-23T10:16:46.807Z,-0.86
2019-01-23T10:19:15.085Z,-0.82
2019-01-23T10:21:43.359Z,-0.78
2019-01-23T10:24:11.701Z,-0.77
2019-01-23T10:26:39.959Z,-0.76
2019-01-23T10:29:08.439Z,-0.80
2019-01-23T10:31:36.748Z,-0.77
2019-01-23T10:34:05.064Z,-0.69
2019-01-23T10:36:33.352Z,-0.68
2019-01-23T10:39:01.677Z,-0.65
2019-01-23T10:41:29.972Z,-0.63
2019-01-23T10:43:58.229Z,-0.61
2019-01-23T10:46:27.038Z,-0.59
2019-01-23T10:48:55.306Z,-0.57
2019-01-23T10:51:23.577Z,-0.52
2019-01-23T10:53:51.894Z,-0.48
2019-01-23T10:56:20.152Z,-0.43
2019-01-23T10:58:48.424Z,-0.39
2019-01-23T11:01:16.818Z,-0.35
2019-01-23T11:03:45.097Z,-0.32
2019-01-23T11:06:13.768Z,-0.33
2019-01-23T11:08:42.053Z,-0.32
2019-01-23T11:11:10.372Z,-0.33
2019-01-23T11:13:40.187Z,-0.38
2019-01-23T11:16:08.446Z,-0.34
2019-01-23T11:18:36.753Z,-0.33
2019-01-23T11:21:05.024Z,-0.29
2019-01-23T11:23:33.426Z,-0.24
2019-01-23T11:26:01.702Z,-0.27
2019-01-23T11:28:30.004Z,-0.24
2019-01-23T11:30:58.340Z,-0.23
2019-01-23T11:33:26.607Z,-0.17
2019-01-23T11:35:55.404Z,-0.13
2019-01-23T11:38:23.668Z,-0.10
2019-01-23T11:40:51.964Z,-0.03
2019-01-23T11:43:20.242Z,-0.05
2019-01-23T11:45:48.514Z,-0.05
2019-01-23T11:48:16.845Z,-0.09
2019-01-23T11:50:45.091Z,-0.03
2019-01-23T11:53:13.459Z,0.02
2019-01-23T11:55:41.779Z,-0.10
2019-01-23T11:58:10.053Z,-0.11
2019-01-23T12:00:39.126Z,-0.14
2019-01-23T12:03:07.479Z,-0.12
2019-01-23T12:05:35.761Z,-0.09
2019-01-23T12:08:04.079Z,-0.10
2019-01-23T12:10:32.418Z,-0.08
2019-01-23T12:13:00.677Z,-0.05
2019-01-23T12:15:28.940Z,-0.05
2019-01-23T12:17:57.836Z,-0.03
2019-01-23T12:20:26.104Z,-0.05
2019-01-23T12:22:54.353Z,-0.05
2019-01-23T12:25:22.654Z,-0.02
2019-01-23T12:27:50.931Z,-0.04
2019-01-23T12:30:28.097Z,-0.04
2019-01-23T12:32:57.293Z,-0.07
2019-01-23T12:35:25.573Z,-0.04
2019-01-23T12:37:53.882Z,0.00
2019-01-23T12:40:22.731Z,0.04
2019-01-23T12:42:51.161Z,0.08
2019-01-23T12:45:27.344Z,0.13
2019-01-23T12:47:56.313Z,0.06
2019-01-23T12:50:26.949Z,0.08
2019-01-23T12:52:55.274Z,0.04
2019-01-23T12:55:23.686Z,0.06
2019-01-23T12:57:52.061Z,0.08
2019-01-23T13:00:23.409Z,0.10
2019-01-23T13:02:51.788Z,0.11
2019-01-23T13:05:21.151Z,0.16
2019-01-23T13:07:49.506Z,0.22
2019-01-23T13:10:20.110Z,0.22
2019-01-23T13:12:48.400Z,0.24
2019-01-23T13:15:22.042Z,0.28
2019-01-23T13:17:50.363Z,0.33
2019-01-23T13:20:20.574Z,0.31
2019-01-23T13:22:48.895Z,0.22
2019-01-23T13:25:19.253Z,0.24
2019-01-23T13:27:47.614Z,0.24
2019-01-23T13:30:21.709Z,0.26
2019-01-23T13:32:50.116Z,0.23
2019-01-23T13:35:23.828Z,0.27
2019-01-23T13:37:52.091Z,0.28
2019-01-23T13:40:29.300Z,0.32
2019-01-23T13:42:57.561Z,0.35
2019-01-23T13:45:25.882Z,0.32
2019-01-23T13:47:54.204Z,0.33
2019-01-23T13:50:22.470Z,0.32
2019-01-23T13:52:50.755Z,0.30
2019-01-23T13:55:23.088Z,0.28
2019-01-23T13:57:51.361Z,0.17
2019-01-23T14:00:22.079Z,0.14
2019-01-23T14:02:50.551Z,0.14
2019-01-23T14:05:18.810Z,0.16
2019-01-23T14:07:47.083Z,0.20
2019-01-23T14:10:17.546Z,0.25
2019-01-23T14:12:45.838Z,0.31
2019-01-23T14:15:17.423Z,0.37
2019-01-23T14:17:45.740Z,0.39
2019-01-23T14:20:16.169Z,0.40
2019-01-23T14:22:44.427Z,0.38
2019-01-23T14:25:14.909Z,0.27
2019-01-23T14:27:43.171Z,0.24
2019-01-23T14:30:26.425Z,0.19
2019-01-23T14:32:54.725Z,0.23
2019-01-23T14:35:23.081Z,0.28
2019-01-23T14:37:51.363Z,0.33
2019-01-23T14:40:19.653Z,0.36
2019-01-23T14:42:48.079Z,0.39
2019-01-23T14:45:17.659Z,0.45
2019-01-23T14:47:45.973Z,0.49
2019-01-23T14:50:18.906Z,0.44
2019-01-23T14:52:48.286Z,0.43
2019-01-23T14:55:16.711Z,0.43
2019-01-23T14:57:45.060Z,0.43
2019-01-23T15:00:22.292Z,0.40
2019-01-23T15:02:50.582Z,0.34
2019-01-23T15:05:18.870Z,0.33
2019-01-23T15:07:47.161Z,0.31
2019-01-23T15:10:18.029Z,0.23
2019-01-23T15:12:46.341Z,0.20
2019-01-23T15:15:14.833Z,0.15
2019-01-23T15:17:43.107Z,0.08
2019-01-23T15:20:14.712Z,0.03
2019-01-23T15:22:42.986Z,-0.01
2019-01-23T15:25:11.281Z,-0.12
2019-01-23T15:27:39.593Z,-0.24
2019-01-23T15:30:11.539Z,-0.31
2019-01-23T15:32:39.845Z,-0.41
2019-01-23T15:35:09.850Z,-0.41
2019-01-23T15:37:38.160Z,-0.44
2019-01-23T15:40:09.927Z,-0.56
2019-01-23T15:42:38.326Z,-0.63
2019-01-23T15:45:09.447Z,-0.63
2019-01-23T15:47:37.742Z,-0.66
2019-01-23T15:50:09.640Z,-0.70
2019-01-23T15:52:37.901Z,-0.76
2019-01-23T15:55:09.525Z,-0.80
2019-01-23T15:57:37.800Z,-0.84
2019-01-23T16:00:12.190Z,-0.91
2019-01-23T16:02:40.523Z,-0.94
2019-01-23T16:05:08.868Z,-1.00
2019-01-23T16:07:37.141Z,-1.03
2019-01-23T16:10:08.717Z,-1.08
2019-01-23T16:12:37.002Z,-1.10
2019-01-23T16:15:08.775Z,-1.11
2019-01-23T16:17:37.061Z,-1.12
2019-01-23T16:20:10.475Z,-1.16
2019-01-23T16:22:39.509Z,-1.20
2019-01-23T16:25:10.629Z,-1.25
2019-01-23T16:27:38.889Z,-1.29
2019-01-23T16:30:13.078Z,-1.30
2019-01-23T16:32:41.402Z,-1.35
2019-01-23T16:35:09.832Z,-1.39
2019-01-23T16:37:38.220Z,-1.46
2019-01-23T16:40:09.081Z,-1.48
2019-01-23T16:42:37.771Z,-1.54
2019-01-23T16:45:12.488Z,-1.55
2019-01-23T16:47:40.830Z,-1.57
2019-01-23T16:50:12.493Z,-1.62
2019-01-23T16:52:40.831Z,-1.67
2019-01-23T16:55:09.392Z,-1.70
2019-01-23T16:57:37.652Z,-1.72
2019-01-23T17:00:11.833Z,-1.73
2019-01-23T17:02:40.186Z,-1.74
2019-01-23T17:05:17.414Z,-1.77
2019-01-23T17:07:45.671Z,-1.78
2019-01-23T17:10:19.449Z,-1.83
2019-01-23T17:12:47.779Z,-1.86
2019-01-23T17:15:16.037Z,-1.92
2019-01-23T17:17:44.444Z,-1.96
2019-01-23T17:20:21.142Z,-2.01
2019-01-23T17:22:49.475Z,-2.03
2019-01-23T17:25:17.753Z,-2.06
2019-01-23T17:27:46.038Z,-2.10
2019-01-23T17:30:16.669Z,-2.12
2019-01-23T17:32:45.758Z,-2.16
2019-01-23T17:35:17.350Z,-2.19
2019-01-23T17:37:45.630Z,-2.26
2019-01-23T17:40:16.986Z,-2.34
2019-01-23T17:42:45.306Z,-2.37
2019-01-23T17:45:16.995Z,-2.40
2019-01-23T17:47:46.057Z,-2.43
2019-01-23T17:50:16.980Z,-2.46
2019-01-23T17:52:45.320Z,-2.48
2019-01-23T17:55:19.680Z,-2.49
2019-01-23T17:57:47.928Z,-2.51
2019-01-23T18:00:26.498Z,-2.55
2019-01-23T18:02:54.915Z,-2.56
2019-01-23T18:05:23.502Z,-2.57
2019-01-23T18:07:51.778Z,-2.59
2019-01-23T18:10:20.048Z,-2.61
2019-01-23T18:12:48.442Z,-2.66
2019-01-23T18:15:25.817Z,-2.67
2019-01-23T18:17:54.126Z,-2.70
2019-01-23T18:20:25.091Z,-2.74
2019-01-23T18:22:53.420Z,-2.75
2019-01-23T18:25:21.775Z,-2.78
2019-01-23T18:27:50.059Z,-2.78
2019-01-23T18:30:26.962Z,-2.81
2019-01-23T18:32:59.812Z,-2.84
2019-01-23T18:35:40.457Z,-2.85
2019-01-23T18:38:21.059Z,-2.86
2019-01-23T18:41:14.122Z,-2.92
2019-01-23T18:43:51.665Z,-2.94
2019-01-23T18:46:44.851Z,-2.98
2019-01-23T18:49:38.939Z,-2.98
2019-01-23T18:52:12.913Z,-3.01
2019-01-23T18:54:42.212Z,-3.04
2019-01-23T18:57:16.607Z,-3.14
2019-01-23T18:59:44.921Z,-3.16
2019-01-23T19:02:13.181Z,-3.19
2019-01-23T19:04:41.469Z,-3.23
2019-01-23T19:07:09.802Z,-3.24
2019-01-23T19:09:38.136Z,-3.24
2019-01-23T19:12:06.464Z,-3.27
2019-01-23T19:14:34.726Z,-3.29
2019-01-23T19:17:03.010Z,-3.31
2019-01-23T19:19:31.352Z,-3.30
2019-01-23T19:21:59.964Z,-3.32
2019-01-23T19:24:28.229Z,-3.34
2019-01-23T19:26:56.568Z,-3.34
2019-01-23T19:29:24.879Z,-3.40
2019-01-23T19:31:53.493Z,-3.43
2019-01-23T19:34:22.511Z,-3.42
2019-01-23T19:36:50.865Z,-3.43
2019-01-23T19:39:19.169Z,-3.44
2019-01-23T19:41:47.449Z,-3.45
2019-01-23T19:44:15.730Z,-3.48
2019-01-23T19:46:44.077Z,-3.52
2019-01-23T19:49:12.481Z,-3.53
2019-01-23T19:51:40.754Z,-3.54
2019-01-23T19:54:09.087Z,-3.56
2019-01-23T19:56:37.359Z,-3.58
2019-01-23T19:59:05.636Z,-3.60
2019-01-23T20:01:33.896Z,-3.62
2019-01-23T20:04:02.194Z,-3.64
2019-01-23T20:06:30.477Z,-3.66
2019-01-23T20:08:58.736Z,-3.68
2019-01-23T20:11:27.001Z,-3.70
2019-01-23T20:13:55.324Z,-3.73
2019-01-23T20:16:23.746Z,-3.73
2019-01-23T20:18:52.570Z,-3.77
2019-01-23T20:21:20.853Z,-3.78
2019-01-23T20:23:49.853Z,-3.80
2019-01-23T20:26:18.152Z,-3.80
2019-01-23T20:28:46.461Z,-3.81
2019-01-23T20:31:14.718Z,-3.83
2019-01-23T20:33:45.427Z,-3.85
2019-01-23T20:36:13.781Z,-3.86
2019-01-23T20:38:42.187Z,-3.88
2019-01-23T20:41:10.498Z,-3.90
2019-01-23T20:43:38.791Z,-3.93
2019-01-23T20:46:07.066Z,-3.96
2019-01-23T20:48:35.360Z,-3.96
2019-01-23T20:51:03.760Z,-3.97
2019-01-23T20:53:32.018Z,-3.97
2019-01-23T20:56:00.338Z,-3.99
2019-01-23T20:58:28.600Z,-4.00
2019-01-23T21:00:56.903Z,-3.99
2019-01-23T21:03:25.208Z,-4.01
2019-01-23T21:05:53.460Z,-4.01
2019-01-23T21:08:21.775Z,-4.00
2019-01-23T21:10:50.926Z,-3.99
2019-01-23T21:13:19.223Z,-3.97
2019-01-23T21:15:47.478Z,-3.94
2019-01-23T21:18:15.799Z,-3.92
2019-01-23T21:20:44.079Z,-3.89
2019-01-23T21:23:12.402Z,-3.85
2019-01-23T21:25:40.707Z,-3.83
2019-01-23T21:28:08.964Z,-3.82
2019-01-23T21:30:37.249Z,-3.82
2019-01-23T21:33:05.508Z,-3.79
2019-01-23T21:35:33.936Z,-3.78
2019-01-23T21:38:04.424Z,-3.73
2019-01-23T21:40:32.715Z,-3.74
2019-01-23T21:43:01.080Z,-3.73
2019-01-23T21:45:29.868Z,-3.70
2019-01-23T21:47:58.113Z,-3.66
2019-01-23T21:50:26.414Z,-3.64
2019-01-23T21:52:54.836Z,-3.61
2019-01-23T21:55:24.553Z,-3.61
2019-01-23T21:57:52.883Z,-3.59
2019-01-23T22:00:23.709Z,-3.56
2019-01-23T22:02:52.540Z,-3.57
2019-01-23T22:05:20.845Z,-3.52
2019-01-23T22:07:49.101Z,-3.50
2019-01-23T22:10:17.390Z,-3.48
2019-01-23T22:12:45.647Z,-3.47
2019-01-23T22:15:22.643Z,-3.44
2019-01-23T22:17:50.901Z,-3.43
2019-01-23T22:20:20.691Z,-3.41
2019-01-23T22:22:49.021Z,-3.37
2019-01-23T22:25:19.208Z,-3.36
2019-01-23T22:27:48.582Z,-3.33
2019-01-23T22:30:28.171Z,-3.31
2019-01-23T22:32:56.457Z,-3.29
2019-01-23T22:35:24.934Z,-3.26
2019-01-23T22:37:53.217Z,-3.25
2019-01-23T22:40:21.504Z,-3.25
2019-01-23T22:42:49.795Z,-3.24
2019-01-23T22:45:19.710Z,-3.24
2019-01-23T22:47:48.000Z,-3.21
2019-01-23T22:50:24.489Z,-3.21
2019-01-23T22:52:53.121Z,-3.21
2019-01-23T22:55:21.515Z,-3.19
2019-01-23T22:57:49.787Z,-3.18
2019-01-23T23:00:48.045Z,-3.24
2019-01-23T23:03:16.497Z,-3.25
2019-01-23T23:05:44.757Z,-3.24
2019-01-23T23:08:13.199Z,-3.22
2019-01-23T23:10:41.443Z,-3.22
2019-01-23T23:13:09.701Z,-3.23
2019-01-23T23:15:37.984Z,-3.22
2019-01-23T23:18:06.276Z,-3.21
2019-01-23T23:20:34.601Z,-3.19
2019-01-23T23:23:02.863Z,-3.16
2019-01-23T23:25:31.193Z,-3.16
2019-01-23T23:27:59.517Z,-3.15
2019-01-23T23:30:28.392Z,-3.14
2019-01-23T23:32:56.703Z,-3.13
2019-01-23T23:35:24.985Z,-3.15
2019-01-23T23:37:53.301Z,-3.15
2019-01-23T23:40:21.551Z,-3.13
2019-01-23T23:42:49.883Z,-3.07
2019-01-23T23:45:18.971Z,-3.09
2019-01-23T23:47:47.355Z,-3.07
2019-01-23T23:50:16.487Z,-3.05
2019-01-23T23:52:44.815Z,-3.04
2019-01-23T23:55:14.783Z,-3.02
2019-01-23T23:57:43.037Z,-3.04
